createdAt,value
2022-08-03T00:00:15.639Z,99377.13
2022-08-03T00:01:12.742Z,99383.28
2022-08-03T00:02:09.620Z,99376.28
2022-08-03T00:03:06.629Z,99381.63
2022-08-03T00:04:04.489Z,99375.41
2022-08-03T00:05:01.366Z,99377.84
2022-08-03T00:06:04.695Z,99379.56
2022-08-03T00:07:02.084Z,99377.00
2022-08-03T00:07:59.669Z,99369.78
2022-08-03T00:08:56.940Z,99376.13
2022-08-03T00:09:53.719Z,99374.38
2022-08-03T00:10:50.562Z,99376.13
2022-08-03T00:11:47.362Z,99382.59
2022-08-03T00:12:47.052Z,99369.34
2022-08-03T00:13:43.845Z,99375.66
2022-08-03T00:14:40.651Z,99368.50
2022-08-03T00:15:40.366Z,99371.53
2022-08-03T00:16:37.163Z,99367.03
2022-08-03T00:17:52.034Z,99370.78
2022-08-03T00:23:25.129Z,99357.91
2022-08-03T00:24:21.882Z,99365.78
2022-08-03T00:25:19.234Z,99365.78
2022-08-03T00:26:16.057Z,99363.13
2022-08-03T00:27:15.810Z,99362.31
2022-08-03T00:28:13.626Z,99359.63
2022-08-03T00:29:12.241Z,99362.06
2022-08-03T00:30:09.381Z,99360.31
2022-08-03T00:31:06.959Z,99361.38
2022-08-03T00:32:04.242Z,99358.69
2022-08-03T00:33:01.122Z,99368.53
2022-08-03T00:34:03.341Z,99358.88
2022-08-03T00:35:00.516Z,99361.66
2022-08-03T00:36:04.775Z,99361.75
2022-08-03T00:37:01.545Z,99359.09
2022-08-03T00:37:58.439Z,99354.59
2022-08-03T00:38:55.605Z,99352.00
2022-08-03T00:39:52.407Z,99351.13
2022-08-03T00:40:49.404Z,99354.75
2022-08-03T00:41:46.455Z,99356.56
2022-08-03T00:42:50.990Z,99359.31
2022-08-03T00:43:47.901Z,99353.09
2022-08-03T00:44:44.950Z,99358.47
2022-08-03T00:45:42.207Z,99355.94
2022-08-03T00:46:38.955Z,99354.13
2022-08-03T00:47:35.753Z,99349.81
2022-08-03T00:53:25.215Z,99358.31
2022-08-03T00:54:22.025Z,99353.84
2022-08-03T00:55:18.903Z,99347.63
2022-08-03T00:56:16.470Z,99350.28
2022-08-03T00:57:13.167Z,99348.66
2022-08-03T00:58:11.328Z,99352.16
2022-08-03T00:59:09.779Z,99352.28
2022-08-03T01:00:07.478Z,99353.22
2022-08-03T01:01:07.136Z,99350.59
2022-08-03T01:02:04.306Z,99356.06
2022-08-03T01:03:01.208Z,99356.19
2022-08-03T01:03:58.081Z,99348.34
2022-08-03T01:04:55.369Z,99353.69
2022-08-03T01:05:52.179Z,99353.75
2022-08-03T01:07:15.124Z,99351.19
2022-08-03T01:08:30.653Z,99353.00
2022-08-03T01:09:31.367Z,99351.31
2022-08-03T01:10:40.048Z,99347.00
2022-08-03T01:12:00.521Z,99342.53
2022-08-03T01:13:04.029Z,99351.44
2022-08-03T01:14:18.864Z,99351.56
2022-08-03T01:15:26.135Z,99340.97
2022-08-03T01:16:35.689Z,99334.88
2022-08-03T01:23:42.058Z,99337.66
2022-08-03T01:25:29.572Z,99334.34
2022-08-03T01:26:47.098Z,99338.84
2022-08-03T01:28:08.875Z,99339.00
2022-08-03T01:29:11.332Z,99337.19
2022-08-03T01:30:08.926Z,99345.22
2022-08-03T01:31:08.301Z,99336.22
2022-08-03T01:33:02.614Z,99338.13
2022-08-03T01:33:43.720Z,99344.34
2022-08-03T01:34:45.790Z,99337.25
2022-08-03T01:35:47.645Z,99337.44
2022-08-03T01:36:46.565Z,99348.19
2022-08-03T01:37:50.444Z,99344.72
2022-08-03T01:38:54.138Z,99342.13
2022-08-03T01:39:50.866Z,99336.00
2022-08-03T01:40:47.812Z,99336.84
2022-08-03T01:41:49.729Z,99333.31
2022-08-03T01:42:46.577Z,99329.88
2022-08-03T01:44:26.516Z,99332.56
2022-08-03T01:45:00.409Z,99331.69
2022-08-03T01:45:57.422Z,99333.41
2022-08-03T01:46:54.347Z,99327.34
2022-08-03T01:53:24.235Z,99320.81
2022-08-03T01:54:21.010Z,99314.72
2022-08-03T01:55:19.107Z,99327.34
2022-08-03T01:56:15.958Z,99324.69
2022-08-03T01:57:12.853Z,99330.13
2022-08-03T01:58:09.623Z,99324.84
2022-08-03T01:59:06.276Z,99330.25
2022-08-03T02:00:03.847Z,99316.91
2022-08-03T02:01:01.604Z,99329.31
2022-08-03T02:02:28.277Z,99324.06
2022-08-03T02:03:15.190Z,99324.31
2022-08-03T02:04:12.429Z,99323.50
2022-08-03T02:05:11.006Z,99320.91
2022-08-03T02:07:00.862Z,99321.94
2022-08-03T02:07:27.110Z,99321.06
2022-08-03T02:08:24.796Z,99317.50
2022-08-03T02:09:22.336Z,99315.88
2022-08-03T02:10:22.206Z,99317.69
2022-08-03T02:11:31.795Z,99318.69
2022-08-03T02:12:29.213Z,99319.66
2022-08-03T02:13:26.036Z,99308.97
2022-08-03T02:14:22.768Z,99316.97
2022-08-03T02:15:19.598Z,99321.34
2022-08-03T02:16:16.535Z,99318.78
2022-08-03T02:17:13.419Z,99315.41
2022-08-03T02:23:58.691Z,99319.34
2022-08-03T02:24:55.445Z,99309.75
2022-08-03T02:25:54.520Z,99319.50
2022-08-03T02:26:51.752Z,99322.19
2022-08-03T02:27:55.772Z,99317.78
2022-08-03T02:28:52.736Z,99318.81
2022-08-03T02:29:51.666Z,99318.81
2022-08-03T02:30:53.933Z,99329.50
2022-08-03T02:31:50.830Z,99321.53
2022-08-03T02:32:51.751Z,99317.22
2022-08-03T02:33:50.451Z,99321.63
2022-08-03T02:34:49.385Z,99318.88
2022-08-03T02:35:46.499Z,99324.84
2022-08-03T02:36:44.411Z,99324.84
2022-08-03T02:37:49.885Z,99315.91
2022-08-03T02:38:46.945Z,99311.34
2022-08-03T02:39:43.715Z,99321.97
2022-08-03T02:40:40.967Z,99312.09
2022-08-03T02:41:41.915Z,99316.69
2022-08-03T02:42:38.698Z,99318.81
2022-08-03T02:44:05.518Z,99316.13
2022-08-03T02:44:52.387Z,99318.22
2022-08-03T02:45:49.682Z,99320.03
2022-08-03T02:46:47.027Z,99314.69
2022-08-03T02:53:39.311Z,99317.88
2022-08-03T02:54:36.228Z,99320.50
2022-08-03T02:55:34.052Z,99322.13
2022-08-03T02:56:31.044Z,99314.13
2022-08-03T02:57:29.009Z,99317.56
2022-08-03T02:58:25.830Z,99315.88
2022-08-03T02:59:22.645Z,99308.78
2022-08-03T03:00:27.716Z,99310.53
2022-08-03T03:01:26.007Z,99317.66
2022-08-03T03:02:22.904Z,99309.72
2022-08-03T03:03:19.824Z,99317.66
2022-08-03T03:04:16.770Z,99321.97
2022-08-03T03:05:52.072Z,99315.66
2022-08-03T03:06:30.662Z,99314.63
2022-08-03T03:07:28.862Z,99316.34
2022-08-03T03:08:29.028Z,99309.34
2022-08-03T03:09:26.011Z,99314.56
2022-08-03T03:10:37.628Z,99313.63
2022-08-03T03:11:34.692Z,99313.63
2022-08-03T03:12:32.055Z,99312.59
2022-08-03T03:13:29.414Z,99316.91
2022-08-03T03:14:33.631Z,99309.91
2022-08-03T03:15:31.814Z,99314.41
2022-08-03T03:16:28.676Z,99313.47
2022-08-03T03:17:25.440Z,99309.69
2022-08-03T03:23:10.311Z,99311.84
2022-08-03T03:24:07.129Z,99314.66
2022-08-03T03:25:04.527Z,99313.88
2022-08-03T03:26:02.353Z,99314.75
2022-08-03T03:26:59.164Z,99319.28
2022-08-03T03:27:55.917Z,99322.13
2022-08-03T03:28:54.652Z,99320.44
2022-08-03T03:29:51.421Z,99320.53
2022-08-03T03:30:52.674Z,99324.16
2022-08-03T03:31:49.826Z,99322.34
2022-08-03T03:32:46.642Z,99330.41
2022-08-03T03:33:43.452Z,99314.34
2022-08-03T03:34:40.391Z,99319.50
2022-08-03T03:35:42.698Z,99318.41
2022-08-03T03:36:39.675Z,99313.50
2022-08-03T03:37:36.647Z,99316.66
2022-08-03T03:38:33.661Z,99316.34
2022-08-03T03:39:30.447Z,99323.22
2022-08-03T03:40:27.308Z,99317.63
2022-08-03T03:41:24.019Z,99314.88
2022-08-03T03:42:21.048Z,99318.28
2022-08-03T03:43:20.587Z,99316.34
2022-08-03T03:44:17.242Z,99320.75
2022-08-03T03:45:14.143Z,99318.91
2022-08-03T03:46:13.027Z,99321.59
2022-08-03T03:47:09.802Z,99316.34
2022-08-03T03:54:00.386Z,99315.16
2022-08-03T03:55:00.759Z,99311.69
2022-08-03T03:56:02.497Z,99310.06
2022-08-03T03:56:59.609Z,99311.97
2022-08-03T03:57:56.649Z,99313.00
2022-08-03T03:58:53.737Z,99314.88
2022-08-03T03:59:50.562Z,99323.06
2022-08-03T04:00:47.381Z,99320.44
2022-08-03T04:01:44.345Z,99318.81
2022-08-03T04:02:41.198Z,99318.00
2022-08-03T04:03:38.014Z,99318.00
2022-08-03T04:04:53.635Z,99324.16
2022-08-03T04:06:23.026Z,99318.97
2022-08-03T04:07:38.634Z,99324.31
2022-08-03T04:08:54.059Z,99320.66
2022-08-03T04:10:14.795Z,99318.97
2022-08-03T04:11:29.218Z,99317.22
2022-08-03T04:12:29.025Z,99322.63
2022-08-03T04:13:36.033Z,99319.09
2022-08-03T04:14:33.840Z,99312.81
2022-08-03T04:15:30.659Z,99319.78
2022-08-03T04:16:29.170Z,99322.56
2022-08-03T04:17:27.463Z,99326.09
2022-08-03T04:24:02.866Z,99314.88
2022-08-03T04:25:04.367Z,99312.22
2022-08-03T04:26:04.895Z,99316.63
2022-08-03T04:27:02.908Z,99321.66
2022-08-03T04:28:29.330Z,99318.84
2022-08-03T04:29:17.799Z,99315.31
2022-08-03T04:30:14.700Z,99321.50
2022-08-03T04:31:11.399Z,99315.31
2022-08-03T04:32:08.269Z,99319.53
2022-08-03T04:33:05.170Z,99314.06
2022-08-03T04:34:02.545Z,99318.44
2022-08-03T04:34:59.470Z,99315.88
2022-08-03T04:36:01.926Z,99316.75
2022-08-03T04:37:00.769Z,99323.97
2022-08-03T04:37:57.496Z,99323.97
2022-08-03T04:39:05.123Z,99325.53
2022-08-03T04:40:02.983Z,99321.00
2022-08-03T04:40:59.974Z,99314.84
2022-08-03T04:42:08.095Z,99318.22
2022-08-03T04:43:05.761Z,99316.34
2022-08-03T04:44:02.593Z,99317.00
2022-08-03T04:45:01.595Z,99317.75
2022-08-03T04:45:58.744Z,99317.63
2022-08-03T04:46:56.004Z,99324.56
2022-08-03T04:53:45.280Z,99323.31
2022-08-03T04:54:50.664Z,99330.47
2022-08-03T04:55:48.147Z,99329.53
2022-08-03T04:56:44.959Z,99335.59
2022-08-03T04:57:41.774Z,99335.53
2022-08-03T04:58:38.643Z,99330.88
2022-08-03T04:59:35.500Z,99334.25
2022-08-03T05:00:36.041Z,99341.28
2022-08-03T05:01:32.857Z,99333.94
2022-08-03T05:02:29.972Z,99333.88
2022-08-03T05:03:26.864Z,99332.16
2022-08-03T05:04:23.638Z,99333.00
2022-08-03T05:05:20.487Z,99331.09
2022-08-03T05:06:18.807Z,99339.13
2022-08-03T05:07:20.453Z,99336.31
2022-08-03T05:08:27.817Z,99331.69
2022-08-03T05:09:50.838Z,99329.78
2022-08-03T05:10:42.082Z,99327.09
2022-08-03T05:11:38.870Z,99333.19
2022-08-03T05:12:35.658Z,99328.53
2022-08-03T05:13:32.552Z,99335.50
2022-08-03T05:14:29.330Z,99339.75
2022-08-03T05:15:26.173Z,99335.19
2022-08-03T05:16:22.977Z,99330.56
2022-08-03T05:17:19.753Z,99334.72
2022-08-03T05:24:14.605Z,99338.16
2022-08-03T05:25:19.203Z,99334.44
2022-08-03T05:26:17.536Z,99330.75
2022-08-03T05:27:19.286Z,99334.00
2022-08-03T05:28:16.077Z,99331.13
2022-08-03T05:29:13.169Z,99339.09
2022-08-03T05:30:26.789Z,99339.00
2022-08-03T05:31:27.041Z,99339.63
2022-08-03T05:32:23.781Z,99331.34
2022-08-03T05:33:20.568Z,99332.03
2022-08-03T05:34:17.334Z,99330.84
2022-08-03T05:35:56.072Z,99332.31
2022-08-03T05:36:30.941Z,99332.91
2022-08-03T05:37:27.708Z,99327.31
2022-08-03T05:38:28.617Z,99325.25
2022-08-03T05:39:31.252Z,99329.31
2022-08-03T05:40:28.031Z,99324.53
2022-08-03T05:41:37.063Z,99327.81
2022-08-03T05:42:34.484Z,99328.53
2022-08-03T05:43:32.200Z,99331.66
2022-08-03T05:44:29.093Z,99324.28
2022-08-03T05:45:28.470Z,99321.34
2022-08-03T05:46:25.645Z,99326.44
2022-08-03T05:47:22.372Z,99326.19
2022-08-03T05:54:05.938Z,99334.25
2022-08-03T05:55:02.730Z,99326.94
2022-08-03T05:56:03.455Z,99330.09
2022-08-03T05:57:11.604Z,99334.03
2022-08-03T05:58:08.976Z,99333.69
2022-08-03T05:59:35.779Z,99335.03
2022-08-03T06:00:25.109Z,99329.13
2022-08-03T06:01:22.689Z,99330.41
2022-08-03T06:02:19.481Z,99338.09
2022-08-03T06:03:16.356Z,99340.41
2022-08-03T06:04:13.530Z,99332.06
2022-08-03T06:05:10.822Z,99334.47
2022-08-03T06:06:07.599Z,99330.53
2022-08-03T06:07:04.370Z,99336.59
2022-08-03T06:08:01.060Z,99332.75
2022-08-03T06:08:57.770Z,99335.91
2022-08-03T06:10:35.078Z,99330.25
2022-08-03T06:11:11.548Z,99330.44
2022-08-03T06:12:13.747Z,99325.66
2022-08-03T06:13:10.952Z,99329.56
2022-08-03T06:14:08.032Z,99327.44
2022-08-03T06:15:05.265Z,99337.94
2022-08-03T06:16:04.815Z,99341.00
2022-08-03T06:17:01.653Z,99336.19
2022-08-03T06:23:57.030Z,99324.06
2022-08-03T06:24:54.720Z,99332.41
2022-08-03T06:25:51.449Z,99334.56
2022-08-03T06:26:48.313Z,99334.06
2022-08-03T06:27:45.110Z,99329.94
2022-08-03T06:28:52.503Z,99335.88
2022-08-03T06:29:50.603Z,99323.91
2022-08-03T06:30:47.416Z,99327.69
2022-08-03T06:31:46.604Z,99334.47
2022-08-03T06:32:43.377Z,99331.47
2022-08-03T06:34:30.560Z,99332.78
2022-08-03T06:35:09.415Z,99327.50
2022-08-03T06:36:06.359Z,99329.66
2022-08-03T06:37:03.275Z,99335.41
2022-08-03T06:37:59.945Z,99329.00
2022-08-03T06:38:59.016Z,99330.25
2022-08-03T06:39:55.777Z,99333.38
2022-08-03T06:40:52.546Z,99331.94
2022-08-03T06:41:49.556Z,99332.63
2022-08-03T06:42:46.484Z,99336.59
2022-08-03T06:44:03.927Z,99324.50
2022-08-03T06:45:00.510Z,99325.78
2022-08-03T06:45:57.382Z,99329.63
2022-08-03T06:46:54.352Z,99332.84
2022-08-03T06:53:50.436Z,99329.44
2022-08-03T06:54:47.436Z,99327.06
2022-08-03T06:55:44.370Z,99337.31
2022-08-03T06:56:41.233Z,99333.13
2022-08-03T06:57:41.730Z,99330.53
2022-08-03T06:58:38.631Z,99322.75
2022-08-03T07:00:07.395Z,99325.25
2022-08-03T07:00:53.194Z,99334.69
2022-08-03T07:01:50.272Z,99326.50
2022-08-03T07:02:47.143Z,99329.72
2022-08-03T07:03:52.055Z,99328.81
2022-08-03T07:04:49.706Z,99332.84
2022-08-03T07:05:49.917Z,99334.34
2022-08-03T07:06:46.752Z,99332.03
2022-08-03T07:07:43.724Z,99329.97
2022-08-03T07:08:40.683Z,99331.69
2022-08-03T07:09:37.606Z,99330.72
2022-08-03T07:10:34.550Z,99335.66
2022-08-03T07:11:31.812Z,99337.50
2022-08-03T07:12:29.130Z,99340.19
2022-08-03T07:13:26.038Z,99331.63
2022-08-03T07:14:23.010Z,99342.22
2022-08-03T07:15:38.312Z,99334.72
2022-08-03T07:16:36.973Z,99333.28
2022-08-03T07:17:34.578Z,99331.22
2022-08-03T07:23:06.874Z,99335.13
2022-08-03T07:24:04.260Z,99330.03
2022-08-03T07:25:01.090Z,99329.66
2022-08-03T07:25:58.127Z,99330.28
2022-08-03T07:26:55.117Z,99338.03
2022-08-03T07:27:51.994Z,99338.03
2022-08-03T07:28:48.916Z,99336.22
2022-08-03T07:29:45.770Z,99340.59
2022-08-03T07:30:42.692Z,99341.25
2022-08-03T07:31:40.154Z,99340.13
2022-08-03T07:32:37.112Z,99347.78
2022-08-03T07:33:47.623Z,99344.47
2022-08-03T07:34:44.463Z,99340.66
2022-08-03T07:35:41.257Z,99340.94
2022-08-03T07:36:38.177Z,99335.28
2022-08-03T07:37:35.092Z,99326.06
2022-08-03T07:38:32.038Z,99345.25
2022-08-03T07:39:29.029Z,99338.50
2022-08-03T07:40:28.189Z,99340.75
2022-08-03T07:41:29.024Z,99345.66
2022-08-03T07:42:27.278Z,99338.16
2022-08-03T07:43:24.540Z,99341.09
2022-08-03T07:44:21.462Z,99340.13
2022-08-03T07:45:18.607Z,99337.78
2022-08-03T07:46:15.577Z,99342.69
2022-08-03T07:47:22.250Z,99339.75
2022-08-03T07:53:03.932Z,99340.50
2022-08-03T07:54:01.400Z,99350.56
2022-08-03T07:54:58.125Z,99343.41
2022-08-03T07:55:55.062Z,99340.59
2022-08-03T07:56:51.998Z,99340.50
2022-08-03T07:58:02.832Z,99337.28
2022-08-03T07:59:00.054Z,99336.03
2022-08-03T08:00:02.432Z,99340.22
2022-08-03T08:00:59.519Z,99341.69
2022-08-03T08:01:56.688Z,99343.88
2022-08-03T08:02:53.506Z,99339.06
2022-08-03T08:03:52.660Z,99337.81
2022-08-03T08:04:50.383Z,99338.53
2022-08-03T08:05:47.080Z,99343.03
2022-08-03T08:06:43.933Z,99345.47
2022-08-03T08:07:40.931Z,99342.16
2022-08-03T08:08:38.707Z,99336.75
2022-08-03T08:09:35.674Z,99336.28
2022-08-03T08:10:32.933Z,99341.84
2022-08-03T08:11:29.802Z,99332.47
2022-08-03T08:12:26.655Z,99338.38
2022-08-03T08:13:23.690Z,99340.81
2022-08-03T08:14:20.454Z,99344.38
2022-08-03T08:15:17.284Z,99343.53
2022-08-03T08:16:14.029Z,99342.16
2022-08-03T08:17:10.723Z,99342.06
2022-08-03T08:23:54.975Z,99337.66
2022-08-03T08:24:54.877Z,99342.56
2022-08-03T08:25:52.120Z,99335.06
2022-08-03T08:26:48.829Z,99346.81
2022-08-03T08:28:31.874Z,99342.00
2022-08-03T08:29:03.988Z,99342.28
2022-08-03T08:30:10.433Z,99340.44
2022-08-03T08:31:08.627Z,99341.50
2022-08-03T08:32:05.830Z,99338.03
2022-08-03T08:33:02.788Z,99345.75
2022-08-03T08:34:04.369Z,99349.69
2022-08-03T08:35:01.636Z,99343.28
2022-08-03T08:35:58.418Z,99347.72
2022-08-03T08:36:55.145Z,99352.13
2022-08-03T08:37:51.940Z,99339.91
2022-08-03T08:38:48.875Z,99342.09
2022-08-03T08:39:45.711Z,99337.63
2022-08-03T08:40:42.928Z,99339.06
2022-08-03T08:41:39.889Z,99343.81
2022-08-03T08:42:57.513Z,99347.28
2022-08-03T08:44:00.618Z,99338.31
2022-08-03T08:44:57.602Z,99334.31
2022-08-03T08:45:54.482Z,99341.88
2022-08-03T08:46:51.337Z,99350.69
2022-08-03T08:53:41.785Z,99344.47
2022-08-03T08:54:38.899Z,99349.78
2022-08-03T08:55:59.305Z,99349.72
2022-08-03T08:56:52.723Z,99339.53
2022-08-03T08:58:01.853Z,99348.81
2022-08-03T08:58:59.379Z,99345.91
2022-08-03T08:59:57.541Z,99344.63
2022-08-03T09:00:55.034Z,99344.06
2022-08-03T09:01:51.846Z,99335.28
2022-08-03T09:02:48.793Z,99344.47
2022-08-03T09:03:46.170Z,99333.38
2022-08-03T09:04:43.107Z,99344.28
2022-08-03T09:05:55.476Z,99330.13
2022-08-03T09:07:10.809Z,99335.34
2022-08-03T09:08:10.092Z,99352.38
2022-08-03T09:09:08.123Z,99340.06
2022-08-03T09:10:11.789Z,99342.50
2022-08-03T09:11:11.959Z,99349.56
2022-08-03T09:12:37.445Z,99345.16
2022-08-03T09:13:26.019Z,99343.13
2022-08-03T09:14:36.933Z,99340.56
2022-08-03T09:15:38.248Z,99352.53
2022-08-03T09:16:35.000Z,99346.97
2022-08-03T09:24:02.158Z,99343.47
2022-08-03T09:25:23.912Z,99342.66
2022-08-03T09:26:22.788Z,99336.50
2022-08-03T09:27:19.640Z,99341.94
2022-08-03T09:28:59.388Z,99348.22
2022-08-03T09:29:37.380Z,99336.31
2022-08-03T09:30:35.318Z,99340.47
2022-08-03T09:31:43.683Z,99341.34
2022-08-03T09:32:40.858Z,99354.19
2022-08-03T09:33:47.794Z,99360.69
2022-08-03T09:34:44.630Z,99347.94
2022-08-03T09:35:54.402Z,99352.19
2022-08-03T09:36:53.973Z,99353.03
2022-08-03T09:38:12.869Z,99355.16
2022-08-03T09:39:18.431Z,99348.41
2022-08-03T09:40:15.293Z,99330.44
2022-08-03T09:41:17.995Z,99346.53
2022-08-03T09:42:18.883Z,99347.28
2022-08-03T09:43:26.033Z,99345.13
2022-08-03T09:44:33.769Z,99351.63
2022-08-03T09:45:30.574Z,99343.09
2022-08-03T09:46:31.846Z,99346.09
2022-08-03T09:47:30.705Z,99349.34
2022-08-03T09:53:04.953Z,99352.16
2022-08-03T09:54:04.955Z,99350.00
2022-08-03T09:56:32.718Z,99342.13
2022-08-03T09:56:35.491Z,99346.09
2022-08-03T09:57:33.591Z,99347.53
2022-08-03T09:58:30.929Z,99350.09
2022-08-03T09:59:29.279Z,99344.00
2022-08-03T10:00:26.055Z,99330.81
2022-08-03T10:01:23.952Z,99350.75
2022-08-03T10:02:25.333Z,99357.44
2022-08-03T10:03:22.570Z,99341.97
2022-08-03T10:04:19.630Z,99335.53
2022-08-03T10:05:19.736Z,99346.63
2022-08-03T10:06:19.774Z,99332.75
2022-08-03T10:07:16.680Z,99325.50
2022-08-03T10:08:17.161Z,99330.81
2022-08-03T10:09:15.986Z,99331.16
2022-08-03T10:10:31.328Z,99328.16
2022-08-03T10:11:36.221Z,99334.78
2022-08-03T10:12:39.121Z,99332.38
2022-08-03T10:13:35.966Z,99329.63
2022-08-03T10:14:34.155Z,99330.41
2022-08-03T10:16:22.240Z,99322.06
2022-08-03T10:16:53.687Z,99329.91
2022-08-03T10:23:33.517Z,99328.69
2022-08-03T10:24:31.250Z,99319.84
2022-08-03T10:25:33.956Z,99330.38
2022-08-03T10:26:32.637Z,99325.38
2022-08-03T10:27:32.742Z,99323.28
2022-08-03T10:28:36.669Z,99332.00
2022-08-03T10:29:38.584Z,99331.81
2022-08-03T10:30:35.413Z,99326.69
2022-08-03T10:31:36.031Z,99324.91
2022-08-03T10:33:02.999Z,99316.38
2022-08-03T10:33:59.831Z,99321.00
2022-08-03T10:35:19.068Z,99321.88
2022-08-03T10:36:18.491Z,99325.75
2022-08-03T10:37:15.192Z,99318.63
2022-08-03T10:38:13.384Z,99319.31
2022-08-03T10:39:16.135Z,99320.34
2022-08-03T10:40:33.250Z,99313.69
2022-08-03T10:41:35.342Z,99308.59
2022-08-03T10:42:33.094Z,99309.69
2022-08-03T10:43:37.190Z,99318.06
2022-08-03T10:44:37.858Z,99308.75
2022-08-03T10:45:34.828Z,99303.06
2022-08-03T10:46:31.606Z,99303.09
2022-08-03T10:47:28.976Z,99298.34
2022-08-03T10:53:07.165Z,99311.31
2022-08-03T10:54:04.608Z,99298.50
2022-08-03T10:55:20.059Z,99303.00
2022-08-03T10:56:52.122Z,99293.97
2022-08-03T10:57:56.624Z,99306.44
2022-08-03T10:58:57.899Z,99300.34
2022-08-03T10:59:55.259Z,99298.81
2022-08-03T11:00:52.405Z,99299.94
2022-08-03T11:01:58.581Z,99298.03
2022-08-03T11:03:09.464Z,99299.31
2022-08-03T11:04:11.010Z,99297.53
2022-08-03T11:05:28.703Z,99289.06
2022-08-03T11:06:26.288Z,99295.41
2022-08-03T11:07:24.031Z,99301.22
2022-08-03T11:08:24.783Z,99290.44
2022-08-03T11:09:21.650Z,99297.50
2022-08-03T11:10:30.309Z,99292.09
2022-08-03T11:11:28.722Z,99292.94
2022-08-03T11:12:33.506Z,99297.19
2022-08-03T11:13:33.462Z,99294.63
2022-08-03T11:14:30.271Z,99299.13
2022-08-03T11:15:34.277Z,99297.38
2022-08-03T11:16:35.882Z,99297.72
2022-08-03T11:17:45.717Z,99293.03
2022-08-03T11:24:04.259Z,99296.22
2022-08-03T11:25:02.582Z,99293.72
2022-08-03T11:26:19.625Z,99284.03
2022-08-03T11:27:20.086Z,99282.53
2022-08-03T11:28:30.632Z,99284.63
2022-08-03T11:29:29.641Z,99290.81
2022-08-03T11:30:27.665Z,99301.47
2022-08-03T11:31:48.531Z,99288.25
2022-08-03T11:32:48.401Z,99291.13
2022-08-03T11:34:03.060Z,99290.16
2022-08-03T11:35:16.361Z,99291.69
2022-08-03T11:36:31.994Z,99295.88
2022-08-03T11:37:33.231Z,99291.91
2022-08-03T11:38:30.518Z,99295.22
2022-08-03T11:39:46.423Z,99286.25
2022-08-03T11:40:50.036Z,99291.09
2022-08-03T11:41:46.905Z,99284.22
2022-08-03T11:42:45.210Z,99281.38
2022-08-03T11:43:45.347Z,99284.84
2022-08-03T11:44:42.103Z,99286.97
2022-08-03T11:45:59.765Z,99285.00
2022-08-03T11:46:56.568Z,99294.53
2022-08-03T11:53:41.779Z,99281.34
2022-08-03T11:54:39.356Z,99291.63
2022-08-03T11:55:36.077Z,99281.53
2022-08-03T11:56:49.225Z,99275.66
2022-08-03T11:59:10.921Z,99281.63
2022-08-03T11:59:20.650Z,99274.56
2022-08-03T12:00:23.722Z,99276.59
2022-08-03T12:01:23.465Z,99274.28
2022-08-03T12:02:20.235Z,99272.63
2022-08-03T12:03:18.418Z,99278.66
2022-08-03T12:04:16.419Z,99267.69
2022-08-03T12:05:13.347Z,99269.00
2022-08-03T12:06:11.486Z,99264.28
2022-08-03T12:07:08.335Z,99275.03
2022-08-03T12:08:06.819Z,99275.13
2022-08-03T12:09:15.749Z,99280.84
2022-08-03T12:10:15.765Z,99274.19
2022-08-03T12:11:15.399Z,99276.75
2022-08-03T12:12:16.190Z,99275.88
2022-08-03T12:14:44.394Z,99279.53
2022-08-03T12:14:48.333Z,99277.19
2022-08-03T12:15:54.560Z,99276.09
2022-08-03T12:16:51.523Z,99282.25
2022-08-03T12:23:41.643Z,99268.94
2022-08-03T12:24:46.709Z,99268.75
2022-08-03T12:25:44.729Z,99265.19
2022-08-03T12:26:59.578Z,99270.53
2022-08-03T12:28:36.990Z,99272.06
2022-08-03T12:29:26.122Z,99265.81
2022-08-03T12:30:23.453Z,99273.75
2022-08-03T12:31:20.242Z,99266.75
2022-08-03T12:32:17.346Z,99259.69
2022-08-03T12:33:24.199Z,99267.53
2022-08-03T12:34:21.206Z,99263.75
2022-08-03T12:35:26.675Z,99268.31
2022-08-03T12:36:23.614Z,99275.97
2022-08-03T12:37:23.798Z,99277.72
2022-08-03T12:38:21.971Z,99274.06
2022-08-03T12:39:22.575Z,99284.94
2022-08-03T12:40:28.723Z,99279.84
2022-08-03T12:41:36.575Z,99274.78
2022-08-03T12:42:35.061Z,99268.53
2022-08-03T12:43:37.598Z,99275.03
2022-08-03T12:44:36.616Z,99266.38
2022-08-03T12:45:34.720Z,99268.47
2022-08-03T12:46:36.817Z,99276.53
2022-08-03T12:53:29.146Z,99264.94
2022-08-03T12:54:31.709Z,99260.31
2022-08-03T12:56:04.297Z,99257.38
2022-08-03T12:57:01.232Z,99262.81
2022-08-03T12:57:58.050Z,99260.81
2022-08-03T12:58:55.012Z,99258.63
2022-08-03T12:59:55.924Z,99253.56
2022-08-03T13:00:56.312Z,99253.28
2022-08-03T13:01:55.527Z,99261.97
2022-08-03T13:03:26.553Z,99264.13
2022-08-03T13:04:29.016Z,99260.47
2022-08-03T13:05:28.648Z,99253.75
2022-08-03T13:06:25.716Z,99256.19
2022-08-03T13:07:22.891Z,99254.63
2022-08-03T13:08:20.758Z,99250.13
2022-08-03T13:09:17.720Z,99263.91
2022-08-03T13:10:30.989Z,99262.31
2022-08-03T13:11:53.529Z,99260.28
2022-08-03T13:12:48.716Z,99261.03
2022-08-03T13:13:46.205Z,99262.41
2022-08-03T13:14:43.765Z,99258.50
2022-08-03T13:15:47.668Z,99260.72
2022-08-03T13:16:45.113Z,99255.53
2022-08-03T13:23:39.859Z,99250.16
2022-08-03T13:24:36.714Z,99246.50
2022-08-03T13:25:33.865Z,99243.50
2022-08-03T13:26:30.721Z,99246.22
2022-08-03T13:28:04.014Z,99249.06
2022-08-03T13:28:44.890Z,99253.44
2022-08-03T13:29:43.105Z,99253.19
2022-08-03T13:30:40.024Z,99243.00
2022-08-03T13:31:36.958Z,99244.91
2022-08-03T13:32:47.901Z,99243.41
2022-08-03T13:33:44.813Z,99256.06
2022-08-03T13:34:41.909Z,99249.88
2022-08-03T13:35:38.868Z,99255.88
2022-08-03T13:36:59.253Z,99237.97
2022-08-03T13:37:52.551Z,99242.03
2022-08-03T13:38:49.420Z,99246.28
2022-08-03T13:39:57.864Z,99243.19
2022-08-03T13:40:56.977Z,99239.88
2022-08-03T13:41:53.945Z,99236.34
2022-08-03T13:42:50.741Z,99245.13
2022-08-03T13:43:47.512Z,99245.13
2022-08-03T13:44:44.464Z,99244.59
2022-08-03T13:45:43.610Z,99240.34
2022-08-03T13:46:42.940Z,99245.16
2022-08-03T13:53:39.728Z,99230.84
2022-08-03T13:54:36.741Z,99228.06
2022-08-03T13:55:33.811Z,99226.53
2022-08-03T13:56:30.786Z,99230.94
2022-08-03T13:58:03.858Z,99235.44
2022-08-03T13:58:44.913Z,99225.22
2022-08-03T13:59:42.222Z,99230.59
2022-08-03T14:00:40.058Z,99237.16
2022-08-03T14:01:53.987Z,99226.47
2022-08-03T14:02:52.858Z,99230.22
2022-08-03T14:03:52.782Z,99226.47
2022-08-03T14:04:49.942Z,99230.53
2022-08-03T14:05:47.882Z,99232.50
2022-08-03T14:06:46.070Z,99235.31
2022-08-03T14:07:43.179Z,99218.81
2022-08-03T14:08:40.420Z,99223.69
2022-08-03T14:09:37.506Z,99223.50
2022-08-03T14:10:39.303Z,99215.44
2022-08-03T14:12:07.701Z,99214.84
2022-08-03T14:12:53.405Z,99222.06
2022-08-03T14:13:50.530Z,99219.50
2022-08-03T14:14:47.742Z,99217.22
2022-08-03T14:15:50.271Z,99222.78
2022-08-03T14:16:48.514Z,99210.34
2022-08-03T14:24:45.428Z,99199.34
2022-08-03T14:25:50.438Z,99198.44
2022-08-03T14:26:49.660Z,99210.66
2022-08-03T14:27:48.259Z,99205.69
2022-08-03T14:28:45.601Z,99204.53
2022-08-03T14:29:42.674Z,99201.84
2022-08-03T14:30:39.790Z,99203.41
2022-08-03T14:32:09.744Z,99202.44
2022-08-03T14:32:59.143Z,99199.63
2022-08-03T14:33:58.078Z,99198.50
2022-08-03T14:34:55.320Z,99200.56
2022-08-03T14:35:52.711Z,99197.75
2022-08-03T14:36:49.922Z,99200.81